Fontana, Kansas
Current Conditions -  °F | °C
As of 10:53 PM on Monday 22 Dec 2014 (Local Time) from KIXD Reporting Station
Clear Clear  
Wind Chill: 33°   Ceiling: Unl
Heat Index: 40°   Visibility: 10mi
Dew Point: 35°   Wind: 12mph
Humidity: 83%   Direction: 240°WSW
Pressure: 29.58"   Gusts: NA
Location:  38.43°N, 94.84°W
Report Text: KIXD 230453Z AUTO 24010KT 10SM CLR 04/02 A2958 RMK AO2 SLP018 T00440017
Loading
Personal Weather Stations






























Interactive Weather Map New forecast layout! Learn more

10-Day Weather Forecast

Advertisements
Track Severe Weather on mobile